sensor_id;sensor_type;location;lat;lon;timestamp;temperature;humidity
23562;DHT22;11959;49.418;8.728;2023-07-13T00:01:51;21.10;99.60
23562;DHT22;11959;49.418;8.728;2023-07-13T00:04:18;21.10;99.40
23562;DHT22;11959;49.418;8.728;2023-07-13T00:06:45;21.10;99.60
23562;DHT22;11959;49.418;8.728;2023-07-13T00:09:15;21.00;99.90
23562;DHT22;11959;49.418;8.728;2023-07-13T00:11:42;21.00;99.70
23562;DHT22;11959;49.418;8.728;2023-07-13T00:14:08;21.00;99.50
23562;DHT22;11959;49.418;8.728;2023-07-13T00:16:36;20.90;99.50
23562;DHT22;11959;49.418;8.728;2023-07-13T00:19:02;20.90;99.60
23562;DHT22;11959;49.418;8.728;2023-07-13T00:21:28;21.00;99.70
23562;DHT22;11959;49.418;8.728;2023-07-13T00:23:54;21.00;98.90
23562;DHT22;11959;49.418;8.728;2023-07-13T00:26:19;21.00;99.20
23562;DHT22;11959;49.418;8.728;2023-07-13T00:28:45;21.00;98.90
23562;DHT22;11959;49.418;8.728;2023-07-13T00:31:12;21.10;98.90
23562;DHT22;11959;49.418;8.728;2023-07-13T00:33:40;21.00;99.10
23562;DHT22;11959;49.418;8.728;2023-07-13T00:36:05;21.00;99.40
23562;DHT22;11959;49.418;8.728;2023-07-13T00:38:31;21.00;99.90
23562;DHT22;11959;49.418;8.728;2023-07-13T00:40:57;21.00;99.90
23562;DHT22;11959;49.418;8.728;2023-07-13T00:43:26;20.90;99.90
23562;DHT22;11959;49.418;8.728;2023-07-13T00:48:21;20.90;99.90
23562;DHT22;11959;49.418;8.728;2023-07-13T00:50:51;20.80;99.90
23562;DHT22;11959;49.418;8.728;2023-07-13T00:53:19;20.70;99.90
23562;DHT22;11959;49.418;8.728;2023-07-13T00:55:46;20.70;99.90
23562;DHT22;11959;49.418;8.728;2023-07-13T00:58:13;20.60;99.90
23562;DHT22;11959;49.418;8.728;2023-07-13T01:00:38;20.50;99.90
23562;DHT22;11959;49.418;8.728;2023-07-13T01:03:05;20.50;99.90
23562;DHT22;11959;49.418;8.728;2023-07-13T01:05:34;20.50;99.90
23562;DHT22;11959;49.418;8.728;2023-07-13T01:08:01;20.30;99.90
23562;DHT22;11959;49.418;8.728;2023-07-13T01:10:28;20.30;99.90
23562;DHT22;11959;49.418;8.728;2023-07-13T01:12:54;20.20;99.90
23562;DHT22;11959;49.418;8.728;2023-07-13T01:15:44;20.20;99.90
23562;DHT22;11959;49.418;8.728;2023-07-13T01:18:30;20.20;99.90
23562;DHT22;11959;49.418;8.728;2023-07-13T01:21:02;20.20;99.90
23562;DHT22;11959;49.418;8.728;2023-07-13T01:23:30;20.10;99.90
23562;DHT22;11959;49.418;8.728;2023-07-13T01:25:56;20.00;99.90
23562;DHT22;11959;49.418;8.728;2023-07-13T01:28:24;20.00;99.90
23562;DHT22;11959;49.418;8.728;2023-07-13T01:30:52;20.00;99.90
23562;DHT22;11959;49.418;8.728;2023-07-13T01:33:18;19.90;99.90
23562;DHT22;11959;49.418;8.728;2023-07-13T01:35:47;19.90;99.90
23562;DHT22;11959;49.418;8.728;2023-07-13T01:38:19;19.80;99.90
23562;DHT22;11959;49.418;8.728;2023-07-13T01:40:45;19.80;99.90
23562;DHT22;11959;49.418;8.728;2023-07-13T01:43:10;19.80;99.90
23562;DHT22;11959;49.418;8.728;2023-07-13T01:45:36;19.70;99.90
23562;DHT22;11959;49.418;8.728;2023-07-13T01:48:02;19.70;99.90
23562;DHT22;11959;49.418;8.728;2023-07-13T01:50:28;19.50;99.90
23562;DHT22;11959;49.418;8.728;2023-07-13T01:52:54;19.40;99.90
23562;DHT22;11959;49.418;8.728;2023-07-13T01:55:20;19.40;99.90
23562;DHT22;11959;49.418;8.728;2023-07-13T01:57:47;19.30;99.90
23562;DHT22;11959;49.418;8.728;2023-07-13T02:00:13;19.30;99.90
23562;DHT22;11959;49.418;8.728;2023-07-13T02:02:39;19.30;99.90
23562;DHT22;11959;49.418;8.728;2023-07-13T02:05:05;19.20;99.90
23562;DHT22;11959;49.418;8.728;2023-07-13T02:07:31;19.10;99.90
23562;DHT22;11959;49.418;8.728;2023-07-13T02:09:57;19.00;99.90
23562;DHT22;11959;49.418;8.728;2023-07-13T02:12:23;19.00;99.90
23562;DHT22;11959;49.418;8.728;2023-07-13T02:14:48;18.80;99.90
23562;DHT22;11959;49.418;8.728;2023-07-13T02:17:14;18.80;99.90
23562;DHT22;11959;49.418;8.728;2023-07-13T02:19:40;18.80;99.90
23562;DHT22;11959;49.418;8.728;2023-07-13T02:22:05;18.70;99.90
23562;DHT22;11959;49.418;8.728;2023-07-13T02:24:31;18.70;99.90
23562;DHT22;11959;49.418;8.728;2023-07-13T02:26:57;18.60;99.90
23562;DHT22;11959;49.418;8.728;2023-07-13T02:29:23;18.60;99.90
23562;DHT22;11959;49.418;8.728;2023-07-13T02:31:49;18.50;99.90
23562;DHT22;11959;49.418;8.728;2023-07-13T02:34:14;18.60;99.90
23562;DHT22;11959;49.418;8.728;2023-07-13T02:36:40;18.40;99.90
23562;DHT22;11959;49.418;8.728;2023-07-13T02:39:07;18.30;99.90
23562;DHT22;11959;49.418;8.728;2023-07-13T02:41:33;18.30;99.90
23562;DHT22;11959;49.418;8.728;2023-07-13T02:43:59;18.30;99.90
23562;DHT22;11959;49.418;8.728;2023-07-13T02:46:33;18.30;99.90
23562;DHT22;11959;49.418;8.728;2023-07-13T02:48:59;18.30;99.90
23562;DHT22;11959;49.418;8.728;2023-07-13T02:51:25;18.20;99.90
23562;DHT22;11959;49.418;8.728;2023-07-13T02:53:51;18.10;99.90
23562;DHT22;11959;49.418;8.728;2023-07-13T02:56:16;18.20;99.90
23562;DHT22;11959;49.418;8.728;2023-07-13T02:58:42;18.20;99.90
23562;DHT22;11959;49.418;8.728;2023-07-13T03:01:09;18.20;99.90
23562;DHT22;11959;49.418;8.728;2023-07-13T03:03:35;18.20;99.90
23562;DHT22;11959;49.418;8.728;2023-07-13T03:06:03;18.10;99.90
23562;DHT22;11959;49.418;8.728;2023-07-13T03:08:30;18.10;99.90
23562;DHT22;11959;49.418;8.728;2023-07-13T03:11:05;17.90;99.90
23562;DHT22;11959;49.418;8.728;2023-07-13T03:13:31;17.90;99.90
23562;DHT22;11959;49.418;8.728;2023-07-13T03:15:57;17.90;99.90
23562;DHT22;11959;49.418;8.728;2023-07-13T03:18:23;17.70;99.90
23562;DHT22;11959;49.418;8.728;2023-07-13T03:20:52;17.80;99.90
23562;DHT22;11959;49.418;8.728;2023-07-13T03:23:18;17.70;99.90
23562;DHT22;11959;49.418;8.728;2023-07-13T03:25:44;17.60;99.90
23562;DHT22;11959;49.418;8.728;2023-07-13T03:28:11;17.60;99.90
23562;DHT22;11959;49.418;8.728;2023-07-13T03:30:37;17.60;99.90
23562;DHT22;11959;49.418;8.728;2023-07-13T03:33:03;17.60;99.90
23562;DHT22;11959;49.418;8.728;2023-07-13T03:35:28;17.60;99.90
23562;DHT22;11959;49.418;8.728;2023-07-13T03:37:54;17.60;99.90
23562;DHT22;11959;49.418;8.728;2023-07-13T03:40:19;17.60;99.90
23562;DHT22;11959;49.418;8.728;2023-07-13T03:42:45;17.60;99.90
23562;DHT22;11959;49.418;8.728;2023-07-13T03:45:11;17.60;99.90
23562;DHT22;11959;49.418;8.728;2023-07-13T03:47:36;17.70;99.90
23562;DHT22;11959;49.418;8.728;2023-07-13T03:50:02;17.60;99.90
23562;DHT22;11959;49.418;8.728;2023-07-13T03:52:29;17.60;99.90
23562;DHT22;11959;49.418;8.728;2023-07-13T03:54:54;17.60;99.90
23562;DHT22;11959;49.418;8.728;2023-07-13T03:57:20;17.60;99.90
23562;DHT22;11959;49.418;8.728;2023-07-13T03:59:46;17.60;99.90
23562;DHT22;11959;49.418;8.728;2023-07-13T04:02:11;17.60;99.90
23562;DHT22;11959;49.418;8.728;2023-07-13T04:04:37;17.60;99.90
23562;DHT22;11959;49.418;8.728;2023-07-13T04:07:05;17.60;99.90
23562;DHT22;11959;49.418;8.728;2023-07-13T04:09:31;17.60;99.90
23562;DHT22;11959;49.418;8.728;2023-07-13T04:11:56;17.50;99.90
23562;DHT22;11959;49.418;8.728;2023-07-13T04:14:22;17.50;99.90
23562;DHT22;11959;49.418;8.728;2023-07-13T04:16:47;17.50;99.90
23562;DHT22;11959;49.418;8.728;2023-07-13T04:19:13;17.50;99.90
23562;DHT22;11959;49.418;8.728;2023-07-13T04:21:39;17.50;99.90
23562;DHT22;11959;49.418;8.728;2023-07-13T04:24:05;17.50;99.90
23562;DHT22;11959;49.418;8.728;2023-07-13T04:26:30;17.50;99.90
23562;DHT22;11959;49.418;8.728;2023-07-13T04:28:56;17.40;99.90
23562;DHT22;11959;49.418;8.728;2023-07-13T04:31:22;17.40;99.90
23562;DHT22;11959;49.418;8.728;2023-07-13T04:33:48;17.40;99.90
23562;DHT22;11959;49.418;8.728;2023-07-13T04:36:15;17.40;99.90
23562;DHT22;11959;49.418;8.728;2023-07-13T04:38:41;17.40;99.90
23562;DHT22;11959;49.418;8.728;2023-07-13T04:41:08;17.40;99.90
23562;DHT22;11959;49.418;8.728;2023-07-13T04:43:35;17.30;99.90
23562;DHT22;11959;49.418;8.728;2023-07-13T04:46:09;17.40;99.90
23562;DHT22;11959;49.418;8.728;2023-07-13T04:48:36;17.40;99.90
23562;DHT22;11959;49.418;8.728;2023-07-13T04:51:02;17.40;99.90
23562;DHT22;11959;49.418;8.728;2023-07-13T04:53:29;17.40;99.90
23562;DHT22;11959;49.418;8.728;2023-07-13T04:55:54;17.40;99.90
23562;DHT22;11959;49.418;8.728;2023-07-13T04:58:21;17.50;99.90
23562;DHT22;11959;49.418;8.728;2023-07-13T05:00:47;17.50;99.90
23562;DHT22;11959;49.418;8.728;2023-07-13T05:03:13;17.50;99.90
23562;DHT22;11959;49.418;8.728;2023-07-13T05:05:38;17.60;99.90
23562;DHT22;11959;49.418;8.728;2023-07-13T05:08:04;17.60;99.90
23562;DHT22;11959;49.418;8.728;2023-07-13T05:10:30;17.70;99.90
23562;DHT22;11959;49.418;8.728;2023-07-13T05:12:55;17.70;99.90
23562;DHT22;11959;49.418;8.728;2023-07-13T05:15:22;17.80;99.90
23562;DHT22;11959;49.418;8.728;2023-07-13T05:17:49;17.80;99.90
23562;DHT22;11959;49.418;8.728;2023-07-13T05:20:15;17.90;99.90
23562;DHT22;11959;49.418;8.728;2023-07-13T05:22:42;18.00;99.90
23562;DHT22;11959;49.418;8.728;2023-07-13T05:25:08;18.10;99.90
23562;DHT22;11959;49.418;8.728;2023-07-13T05:27:34;18.10;99.90
23562;DHT22;11959;49.418;8.728;2023-07-13T05:30:01;18.10;99.90
23562;DHT22;11959;49.418;8.728;2023-07-13T05:32:27;18.20;99.90
23562;DHT22;11959;49.418;8.728;2023-07-13T05:34:53;18.30;99.90
23562;DHT22;11959;49.418;8.728;2023-07-13T05:37:18;18.30;99.90
23562;DHT22;11959;49.418;8.728;2023-07-13T05:39:44;18.30;99.90
23562;DHT22;11959;49.418;8.728;2023-07-13T05:42:10;18.40;99.90
23562;DHT22;11959;49.418;8.728;2023-07-13T05:44:35;18.50;99.90
23562;DHT22;11959;49.418;8.728;2023-07-13T05:47:01;18.60;99.90
23562;DHT22;11959;49.418;8.728;2023-07-13T05:49:27;18.60;99.90
23562;DHT22;11959;49.418;8.728;2023-07-13T05:51:52;18.70;99.90
23562;DHT22;11959;49.418;8.728;2023-07-13T05:54:18;18.80;99.90
23562;DHT22;11959;49.418;8.728;2023-07-13T05:56:44;18.80;99.90
23562;DHT22;11959;49.418;8.728;2023-07-13T05:59:09;19.00;99.90
23562;DHT22;11959;49.418;8.728;2023-07-13T06:01:35;19.00;99.90
23562;DHT22;11959;49.418;8.728;2023-07-13T06:04:01;19.20;99.90
23562;DHT22;11959;49.418;8.728;2023-07-13T06:06:27;19.30;99.90
23562;DHT22;11959;49.418;8.728;2023-07-13T06:08:52;19.30;99.90
23562;DHT22;11959;49.418;8.728;2023-07-13T06:11:23;19.40;99.90
23562;DHT22;11959;49.418;8.728;2023-07-13T06:13:50;19.40;99.90
23562;DHT22;11959;49.418;8.728;2023-07-13T06:16:16;19.40;99.90
23562;DHT22;11959;49.418;8.728;2023-07-13T06:18:42;19.30;99.90
23562;DHT22;11959;49.418;8.728;2023-07-13T06:21:16;19.20;99.90
23562;DHT22;11959;49.418;8.728;2023-07-13T06:23:43;19.20;99.90
23562;DHT22;11959;49.418;8.728;2023-07-13T06:26:10;19.30;99.90
23562;DHT22;11959;49.418;8.728;2023-07-13T06:28:37;19.30;99.90
23562;DHT22;11959;49.418;8.728;2023-07-13T06:31:06;19.30;99.90
23562;DHT22;11959;49.418;8.728;2023-07-13T06:33:32;19.40;99.90
23562;DHT22;11959;49.418;8.728;2023-07-13T06:35:58;19.50;99.90
23562;DHT22;11959;49.418;8.728;2023-07-13T06:38:24;19.60;99.90
23562;DHT22;11959;49.418;8.728;2023-07-13T06:40:49;19.60;99.90
23562;DHT22;11959;49.418;8.728;2023-07-13T06:43:15;19.70;99.90
23562;DHT22;11959;49.418;8.728;2023-07-13T06:45:46;19.80;99.90
23562;DHT22;11959;49.418;8.728;2023-07-13T06:48:15;19.90;99.90
23562;DHT22;11959;49.418;8.728;2023-07-13T06:50:42;19.90;99.90
23562;DHT22;11959;49.418;8.728;2023-07-13T06:53:08;20.00;99.90
23562;DHT22;11959;49.418;8.728;2023-07-13T06:55:34;20.00;99.90
23562;DHT22;11959;49.418;8.728;2023-07-13T06:57:59;20.00;99.90
23562;DHT22;11959;49.418;8.728;2023-07-13T07:00:25;20.00;99.90
23562;DHT22;11959;49.418;8.728;2023-07-13T07:02:51;20.10;99.90
23562;DHT22;11959;49.418;8.728;2023-07-13T07:05:16;20.00;99.90
23562;DHT22;11959;49.418;8.728;2023-07-13T07:07:42;20.00;99.90
23562;DHT22;11959;49.418;8.728;2023-07-13T07:10:08;20.10;99.90
23562;DHT22;11959;49.418;8.728;2023-07-13T07:12:34;20.10;99.90
23562;DHT22;11959;49.418;8.728;2023-07-13T07:14:59;20.10;99.90
23562;DHT22;11959;49.418;8.728;2023-07-13T07:17:25;20.10;99.90
23562;DHT22;11959;49.418;8.728;2023-07-13T07:19:52;20.20;99.90
23562;DHT22;11959;49.418;8.728;2023-07-13T07:22:20;20.20;99.90
23562;DHT22;11959;49.418;8.728;2023-07-13T07:24:45;20.30;99.90
23562;DHT22;11959;49.418;8.728;2023-07-13T07:27:11;20.30;99.90
23562;DHT22;11959;49.418;8.728;2023-07-13T07:29:37;20.40;99.90
23562;DHT22;11959;49.418;8.728;2023-07-13T07:32:02;20.50;99.90
23562;DHT22;11959;49.418;8.728;2023-07-13T07:34:28;20.50;99.90
23562;DHT22;11959;49.418;8.728;2023-07-13T07:36:54;20.60;99.90
23562;DHT22;11959;49.418;8.728;2023-07-13T07:39:19;20.60;99.90
23562;DHT22;11959;49.418;8.728;2023-07-13T07:41:45;20.60;99.90
23562;DHT22;11959;49.418;8.728;2023-07-13T07:44:11;20.70;99.90
23562;DHT22;11959;49.418;8.728;2023-07-13T07:46:36;20.70;99.90
23562;DHT22;11959;49.418;8.728;2023-07-13T07:49:02;20.80;99.90
23562;DHT22;11959;49.418;8.728;2023-07-13T07:51:28;20.80;99.70
23562;DHT22;11959;49.418;8.728;2023-07-13T07:53:54;20.80;99.40
23562;DHT22;11959;49.418;8.728;2023-07-13T07:56:19;21.00;99.60
23562;DHT22;11959;49.418;8.728;2023-07-13T07:58:45;21.10;99.40
23562;DHT22;11959;49.418;8.728;2023-07-13T08:01:11;21.10;99.10
23562;DHT22;11959;49.418;8.728;2023-07-13T08:03:36;21.20;99.90
23562;DHT22;11959;49.418;8.728;2023-07-13T08:06:02;21.30;99.40
23562;DHT22;11959;49.418;8.728;2023-07-13T08:08:28;21.40;99.30
23562;DHT22;11959;49.418;8.728;2023-07-13T08:10:53;21.40;99.70
23562;DHT22;11959;49.418;8.728;2023-07-13T08:13:19;21.50;99.20
23562;DHT22;11959;49.418;8.728;2023-07-13T08:15:46;21.50;98.70
23562;DHT22;11959;49.418;8.728;2023-07-13T08:18:12;21.60;98.20
23562;DHT22;11959;49.418;8.728;2023-07-13T08:20:38;21.70;98.30
23562;DHT22;11959;49.418;8.728;2023-07-13T08:23:04;21.80;98.20
23562;DHT22;11959;49.418;8.728;2023-07-13T08:25:29;21.80;98.60
23562;DHT22;11959;49.418;8.728;2023-07-13T08:27:55;21.90;98.20
23562;DHT22;11959;49.418;8.728;2023-07-13T08:30:21;22.00;98.40
23562;DHT22;11959;49.418;8.728;2023-07-13T08:32:47;22.10;98.30
23562;DHT22;11959;49.418;8.728;2023-07-13T08:35:12;22.20;98.90
23562;DHT22;11959;49.418;8.728;2023-07-13T08:37:39;22.30;98.30
23562;DHT22;11959;49.418;8.728;2023-07-13T08:40:05;22.30;98.10
23562;DHT22;11959;49.418;8.728;2023-07-13T08:42:39;22.50;98.10
23562;DHT22;11959;49.418;8.728;2023-07-13T08:48:26;22.70;97.40
23562;DHT22;11959;49.418;8.728;2023-07-13T08:50:30;22.70;97.00
23562;DHT22;11959;49.418;8.728;2023-07-13T08:52:58;22.90;97.50
23562;DHT22;11959;49.418;8.728;2023-07-13T08:55:29;22.90;97.30
23562;DHT22;11959;49.418;8.728;2023-07-13T08:58:03;22.80;97.20
23562;DHT22;11959;49.418;8.728;2023-07-13T09:03:25;23.00;97.00
23562;DHT22;11959;49.418;8.728;2023-07-13T09:05:58;23.10;97.20
23562;DHT22;11959;49.418;8.728;2023-07-13T09:11:26;23.20;96.80
23562;DHT22;11959;49.418;8.728;2023-07-13T09:16:50;23.40;96.00
23562;DHT22;11959;49.418;8.728;2023-07-13T09:19:26;23.50;96.50
23562;DHT22;11959;49.418;8.728;2023-07-13T09:21:54;23.50;96.20
23562;DHT22;11959;49.418;8.728;2023-07-13T09:24:37;23.60;95.90
23562;DHT22;11959;49.418;8.728;2023-07-13T09:27:17;23.60;96.00
23562;DHT22;11959;49.418;8.728;2023-07-13T09:29:52;23.60;96.30
23562;DHT22;11959;49.418;8.728;2023-07-13T09:32:21;23.70;96.20
23562;DHT22;11959;49.418;8.728;2023-07-13T09:34:53;23.90;95.70
23562;DHT22;11959;49.418;8.728;2023-07-13T09:37:29;24.00;95.90
23562;DHT22;11959;49.418;8.728;2023-07-13T09:39:58;24.20;95.40
23562;DHT22;11959;49.418;8.728;2023-07-13T09:42:25;24.40;95.30
23562;DHT22;11959;49.418;8.728;2023-07-13T09:45:00;24.40;95.40
23562;DHT22;11959;49.418;8.728;2023-07-13T09:47:32;24.50;95.10
23562;DHT22;11959;49.418;8.728;2023-07-13T09:50:03;24.60;95.10
23562;DHT22;11959;49.418;8.728;2023-07-13T09:52:42;24.70;94.80
23562;DHT22;11959;49.418;8.728;2023-07-13T09:55:32;24.90;94.10
23562;DHT22;11959;49.418;8.728;2023-07-13T09:58:04;25.00;94.80
23562;DHT22;11959;49.418;8.728;2023-07-13T10:00:31;25.20;94.70
23562;DHT22;11959;49.418;8.728;2023-07-13T10:03:25;25.20;95.10
23562;DHT22;11959;49.418;8.728;2023-07-13T10:05:52;25.10;94.30
23562;DHT22;11959;49.418;8.728;2023-07-13T10:08:25;25.10;94.70
23562;DHT22;11959;49.418;8.728;2023-07-13T10:11:00;25.20;94.70
23562;DHT22;11959;49.418;8.728;2023-07-13T10:13:35;25.20;94.80
23562;DHT22;11959;49.418;8.728;2023-07-13T10:16:03;25.30;95.20
23562;DHT22;11959;49.418;8.728;2023-07-13T10:21:19;25.60;94.50
23562;DHT22;11959;49.418;8.728;2023-07-13T10:23:50;25.70;94.20
23562;DHT22;11959;49.418;8.728;2023-07-13T10:26:29;25.70;93.70
23562;DHT22;11959;49.418;8.728;2023-07-13T10:29:01;25.50;93.90
23562;DHT22;11959;49.418;8.728;2023-07-13T10:31:31;25.40;93.90
23562;DHT22;11959;49.418;8.728;2023-07-13T10:33:57;25.30;94.10
23562;DHT22;11959;49.418;8.728;2023-07-13T10:36:35;25.10;94.30
23562;DHT22;11959;49.418;8.728;2023-07-13T10:39:05;25.00;94.20
23562;DHT22;11959;49.418;8.728;2023-07-13T10:41:35;25.00;94.30
23562;DHT22;11959;49.418;8.728;2023-07-13T10:44:04;25.20;94.60
23562;DHT22;11959;49.418;8.728;2023-07-13T10:46:32;25.40;93.70
23562;DHT22;11959;49.418;8.728;2023-07-13T10:49:04;25.60;93.90
23562;DHT22;11959;49.418;8.728;2023-07-13T10:51:31;25.70;93.60
23562;DHT22;11959;49.418;8.728;2023-07-13T10:54:17;25.70;93.70
23562;DHT22;11959;49.418;8.728;2023-07-13T10:56:44;25.70;93.50
23562;DHT22;11959;49.418;8.728;2023-07-13T10:59:16;25.60;93.30
23562;DHT22;11959;49.418;8.728;2023-07-13T11:01:55;25.50;93.20
23562;DHT22;11959;49.418;8.728;2023-07-13T11:04:22;25.50;92.40
23562;DHT22;11959;49.418;8.728;2023-07-13T11:06:53;25.50;92.50
23562;DHT22;11959;49.418;8.728;2023-07-13T11:12:00;25.40;92.30
23562;DHT22;11959;49.418;8.728;2023-07-13T11:22:49;25.70;91.70
23562;DHT22;11959;49.418;8.728;2023-07-13T11:25:25;25.70;91.70
23562;DHT22;11959;49.418;8.728;2023-07-13T11:33:25;26.30;90.70
23562;DHT22;11959;49.418;8.728;2023-07-13T11:36:12;26.40;90.10
23562;DHT22;11959;49.418;8.728;2023-07-13T11:38:40;26.10;90.60
23562;DHT22;11959;49.418;8.728;2023-07-13T11:41:21;26.00;90.90
23562;DHT22;11959;49.418;8.728;2023-07-13T11:43:53;26.00;91.50
23562;DHT22;11959;49.418;8.728;2023-07-13T11:46:27;26.10;90.70
23562;DHT22;11959;49.418;8.728;2023-07-13T11:48:53;26.40;90.40
23562;DHT22;11959;49.418;8.728;2023-07-13T11:51:23;26.60;90.00
23562;DHT22;11959;49.418;8.728;2023-07-13T11:53:52;26.60;87.20
23562;DHT22;11959;49.418;8.728;2023-07-13T11:56:18;26.60;88.70
23562;DHT22;11959;49.418;8.728;2023-07-13T11:58:49;26.60;89.20
23562;DHT22;11959;49.418;8.728;2023-07-13T12:01:25;26.70;87.50
23562;DHT22;11959;49.418;8.728;2023-07-13T12:03:52;26.60;88.90
23562;DHT22;11959;49.418;8.728;2023-07-13T12:06:24;26.60;87.50
23562;DHT22;11959;49.418;8.728;2023-07-13T12:08:51;26.70;89.30
23562;DHT22;11959;49.418;8.728;2023-07-13T12:11:18;26.70;88.80
23562;DHT22;11959;49.418;8.728;2023-07-13T12:13:44;26.90;88.80
23562;DHT22;11959;49.418;8.728;2023-07-13T12:16:30;26.90;87.80
23562;DHT22;11959;49.418;8.728;2023-07-13T12:18:59;26.90;87.30
23562;DHT22;11959;49.418;8.728;2023-07-13T12:21:33;26.70;87.00
23562;DHT22;11959;49.418;8.728;2023-07-13T12:24:00;26.70;88.40
23562;DHT22;11959;49.418;8.728;2023-07-13T12:26:30;26.70;87.30
23562;DHT22;11959;49.418;8.728;2023-07-13T12:28:59;26.50;86.70
23562;DHT22;11959;49.418;8.728;2023-07-13T12:31:33;26.30;87.40
23562;DHT22;11959;49.418;8.728;2023-07-13T12:34:00;26.00;88.30
23562;DHT22;11959;49.418;8.728;2023-07-13T12:36:25;25.80;87.80
23562;DHT22;11959;49.418;8.728;2023-07-13T12:38:52;25.90;87.30
23562;DHT22;11959;49.418;8.728;2023-07-13T12:41:18;26.00;87.60
23562;DHT22;11959;49.418;8.728;2023-07-13T12:43:45;26.10;88.30
23562;DHT22;11959;49.418;8.728;2023-07-13T12:46:23;26.20;88.10
23562;DHT22;11959;49.418;8.728;2023-07-13T12:48:53;26.40;88.00
23562;DHT22;11959;49.418;8.728;2023-07-13T12:51:22;26.40;88.10
23562;DHT22;11959;49.418;8.728;2023-07-13T12:53:57;26.40;86.60
23562;DHT22;11959;49.418;8.728;2023-07-13T12:56:25;26.40;87.90
23562;DHT22;11959;49.418;8.728;2023-07-13T12:58:59;26.40;86.40
23562;DHT22;11959;49.418;8.728;2023-07-13T13:01:32;26.30;87.10
23562;DHT22;11959;49.418;8.728;2023-07-13T13:04:02;26.20;87.00
23562;DHT22;11959;49.418;8.728;2023-07-13T13:06:32;26.30;87.10
23562;DHT22;11959;49.418;8.728;2023-07-13T13:08:59;26.60;86.20
23562;DHT22;11959;49.418;8.728;2023-07-13T13:11:27;26.80;85.70
23562;DHT22;11959;49.418;8.728;2023-07-13T13:13:53;26.70;85.20
23562;DHT22;11959;49.418;8.728;2023-07-13T13:16:32;26.60;85.10
23562;DHT22;11959;49.418;8.728;2023-07-13T13:19:19;26.40;86.30
23562;DHT22;11959;49.418;8.728;2023-07-13T13:21:47;26.10;86.80
23562;DHT22;11959;49.418;8.728;2023-07-13T13:24:17;25.70;86.50
23562;DHT22;11959;49.418;8.728;2023-07-13T13:26:44;25.60;88.40
23562;DHT22;11959;49.418;8.728;2023-07-13T13:31:42;25.60;87.90
23562;DHT22;11959;49.418;8.728;2023-07-13T13:34:10;25.70;88.30
23562;DHT22;11959;49.418;8.728;2023-07-13T13:36:36;25.70;88.30
23562;DHT22;11959;49.418;8.728;2023-07-13T13:39:04;25.70;89.30
23562;DHT22;11959;49.418;8.728;2023-07-13T13:41:31;25.70;87.90
23562;DHT22;11959;49.418;8.728;2023-07-13T13:43:57;25.80;87.60
23562;DHT22;11959;49.418;8.728;2023-07-13T13:46:25;25.90;87.80
23562;DHT22;11959;49.418;8.728;2023-07-13T13:48:51;25.70;86.60
23562;DHT22;11959;49.418;8.728;2023-07-13T13:51:19;25.60;87.70
23562;DHT22;11959;49.418;8.728;2023-07-13T13:53:46;25.60;87.90
23562;DHT22;11959;49.418;8.728;2023-07-13T13:56:17;25.70;87.60
23562;DHT22;11959;49.418;8.728;2023-07-13T13:58:43;25.70;88.00
23562;DHT22;11959;49.418;8.728;2023-07-13T14:01:28;25.50;87.90
23562;DHT22;11959;49.418;8.728;2023-07-13T14:03:54;25.50;88.30
23562;DHT22;11959;49.418;8.728;2023-07-13T14:06:20;25.50;87.40
23562;DHT22;11959;49.418;8.728;2023-07-13T14:08:46;25.70;88.00
23562;DHT22;11959;49.418;8.728;2023-07-13T14:11:18;25.90;87.70
23562;DHT22;11959;49.418;8.728;2023-07-13T14:13:48;26.00;87.70
23562;DHT22;11959;49.418;8.728;2023-07-13T14:16:20;26.10;88.60
23562;DHT22;11959;49.418;8.728;2023-07-13T14:18:47;26.00;88.20
23562;DHT22;11959;49.418;8.728;2023-07-13T14:21:22;25.90;87.70
23562;DHT22;11959;49.418;8.728;2023-07-13T14:23:48;25.70;87.10
23562;DHT22;11959;49.418;8.728;2023-07-13T14:26:20;25.80;87.60
23562;DHT22;11959;49.418;8.728;2023-07-13T14:28:52;25.80;87.20
23562;DHT22;11959;49.418;8.728;2023-07-13T14:31:19;25.90;86.10
23562;DHT22;11959;49.418;8.728;2023-07-13T14:33:45;25.80;87.70
23562;DHT22;11959;49.418;8.728;2023-07-13T14:36:25;26.00;87.20
23562;DHT22;11959;49.418;8.728;2023-07-13T14:38:51;26.00;86.10
23562;DHT22;11959;49.418;8.728;2023-07-13T14:41:17;26.10;87.20
23562;DHT22;11959;49.418;8.728;2023-07-13T14:43:43;26.20;86.60
23562;DHT22;11959;49.418;8.728;2023-07-13T14:46:24;26.20;86.10
23562;DHT22;11959;49.418;8.728;2023-07-13T14:48:55;26.10;86.20
23562;DHT22;11959;49.418;8.728;2023-07-13T14:51:24;26.10;85.90
23562;DHT22;11959;49.418;8.728;2023-07-13T14:53:49;26.10;86.20
23562;DHT22;11959;49.418;8.728;2023-07-13T14:56:15;26.00;86.80
23562;DHT22;11959;49.418;8.728;2023-07-13T14:58:42;25.90;87.30
23562;DHT22;11959;49.418;8.728;2023-07-13T15:01:15;25.90;87.70
23562;DHT22;11959;49.418;8.728;2023-07-13T15:03:44;25.90;86.40
23562;DHT22;11959;49.418;8.728;2023-07-13T15:06:12;25.90;86.40
23562;DHT22;11959;49.418;8.728;2023-07-13T15:08:39;25.90;87.60
23562;DHT22;11959;49.418;8.728;2023-07-13T15:11:09;25.80;86.90
23562;DHT22;11959;49.418;8.728;2023-07-13T15:13:37;25.80;87.00
23562;DHT22;11959;49.418;8.728;2023-07-13T15:16:04;25.50;85.70
23562;DHT22;11959;49.418;8.728;2023-07-13T15:18:30;25.50;87.20
23562;DHT22;11959;49.418;8.728;2023-07-13T15:20:56;25.60;86.70
23562;DHT22;11959;49.418;8.728;2023-07-13T15:23:25;25.60;86.70
23562;DHT22;11959;49.418;8.728;2023-07-13T15:25:52;25.60;87.10
23562;DHT22;11959;49.418;8.728;2023-07-13T15:28:18;25.70;88.30
23562;DHT22;11959;49.418;8.728;2023-07-13T15:30:48;25.80;87.30
23562;DHT22;11959;49.418;8.728;2023-07-13T15:33:23;25.80;87.00
23562;DHT22;11959;49.418;8.728;2023-07-13T15:35:49;25.80;87.60
23562;DHT22;11959;49.418;8.728;2023-07-13T15:38:19;26.00;88.20
23562;DHT22;11959;49.418;8.728;2023-07-13T15:40:46;26.20;87.50
23562;DHT22;11959;49.418;8.728;2023-07-13T15:43:13;26.30;88.30
23562;DHT22;11959;49.418;8.728;2023-07-13T15:45:40;26.40;87.90
23562;DHT22;11959;49.418;8.728;2023-07-13T15:48:21;26.50;88.10
23562;DHT22;11959;49.418;8.728;2023-07-13T15:50:52;26.50;86.30
23562;DHT22;11959;49.418;8.728;2023-07-13T15:53:22;26.70;85.50
23562;DHT22;11959;49.418;8.728;2023-07-13T15:55:48;26.80;83.60
23562;DHT22;11959;49.418;8.728;2023-07-13T15:58:15;26.50;84.50
23562;DHT22;11959;49.418;8.728;2023-07-13T16:00:42;26.60;85.20
23562;DHT22;11959;49.418;8.728;2023-07-13T16:03:08;26.50;85.90
23562;DHT22;11959;49.418;8.728;2023-07-13T16:05:34;26.40;84.90
23562;DHT22;11959;49.418;8.728;2023-07-13T16:08:01;26.40;85.80
23562;DHT22;11959;49.418;8.728;2023-07-13T16:10:34;26.40;86.10
23562;DHT22;11959;49.418;8.728;2023-07-13T16:13:04;26.40;85.00